sensor_id;sensor_type;location;lat;lon;timestamp;pressure;altitude;pressure_sealevel;temperature;humidity
73974;BME280;62336;-26.094;27.994;2023-12-20T00:00:29;84937.34;;;33.80;21.76
73974;BME280;62336;-26.094;27.994;2023-12-20T00:02:54;84927.27;;;34.10;21.27
73974;BME280;62336;-26.094;27.994;2023-12-20T00:05:19;84926.35;;;33.32;21.62
73974;BME280;62336;-26.094;27.994;2023-12-20T00:07:45;84926.99;;;33.58;21.55
73974;BME280;62336;-26.094;27.994;2023-12-20T00:10:11;84939.52;;;33.11;21.96
73974;BME280;62336;-26.094;27.994;2023-12-20T00:12:36;84939.51;;;33.62;21.49
73974;BME280;62336;-26.094;27.994;2023-12-20T00:15:01;84929.51;;;32.88;21.92
73974;BME280;62336;-26.094;27.994;2023-12-20T00:17:27;84930.35;;;33.38;21.89
73974;BME280;62336;-26.094;27.994;2023-12-20T00:19:51;84947.44;;;34.09;21.30
73974;BME280;62336;-26.094;27.994;2023-12-20T00:22:17;84971.43;;;33.87;21.19
73974;BME280;62336;-26.094;27.994;2023-12-20T00:24:44;85015.96;;;33.25;21.67
73974;BME280;62336;-26.094;27.994;2023-12-20T00:27:08;85045.68;;;33.87;21.38
73974;BME280;62336;-26.094;27.994;2023-12-20T00:29:34;85044.52;;;33.92;21.48
73974;BME280;62336;-26.094;27.994;2023-12-20T00:32:00;85029.47;;;33.19;21.83
73974;BME280;62336;-26.094;27.994;2023-12-20T00:34:25;85021.99;;;33.67;21.76
73974;BME280;62336;-26.094;27.994;2023-12-20T00:36:51;85036.80;;;33.59;21.73
73974;BME280;62336;-26.094;27.994;2023-12-20T00:39:17;85040.97;;;33.08;21.97
73974;BME280;62336;-26.094;27.994;2023-12-20T00:41:42;85038.10;;;33.45;21.93
73974;BME280;62336;-26.094;27.994;2023-12-20T00:44:07;85036.06;;;33.44;21.83
73974;BME280;62336;-26.094;27.994;2023-12-20T00:46:33;85034.08;;;33.72;21.74
73974;BME280;62336;-26.094;27.994;2023-12-20T00:48:58;85027.39;;;33.54;21.60
73974;BME280;62336;-26.094;27.994;2023-12-20T00:51:23;85027.92;;;34.01;21.45
73974;BME280;62336;-26.094;27.994;2023-12-20T00:53:50;85034.30;;;34.17;21.73
73974;BME280;62336;-26.094;27.994;2023-12-20T00:56:14;85026.15;;;33.93;21.45
73974;BME280;62336;-26.094;27.994;2023-12-20T00:58:40;85002.74;;;33.99;21.07
73974;BME280;62336;-26.094;27.994;2023-12-20T01:01:05;84995.42;;;34.05;20.81
73974;BME280;62336;-26.094;27.994;2023-12-20T01:03:30;85006.58;;;34.26;20.99
73974;BME280;62336;-26.094;27.994;2023-12-20T01:05:55;85004.98;;;33.52;21.02
73974;BME280;62336;-26.094;27.994;2023-12-20T01:08:21;84998.32;;;33.94;20.90
73974;BME280;62336;-26.094;27.994;2023-12-20T01:10:46;84994.19;;;34.02;20.89
73974;BME280;62336;-26.094;27.994;2023-12-20T01:13:12;84993.79;;;34.15;20.78
73974;BME280;62336;-26.094;27.994;2023-12-20T01:15:37;84987.74;;;33.88;20.65
73974;BME280;62336;-26.094;27.994;2023-12-20T01:18:03;84980.41;;;33.64;20.48
73974;BME280;62336;-26.094;27.994;2023-12-20T01:20:28;84980.46;;;33.71;20.52
73974;BME280;62336;-26.094;27.994;2023-12-20T01:22:54;84981.13;;;34.47;20.19
73974;BME280;62336;-26.094;27.994;2023-12-20T01:25:19;84983.14;;;34.60;20.01
73974;BME280;62336;-26.094;27.994;2023-12-20T01:27:45;84986.01;;;34.85;19.66
73974;BME280;62336;-26.094;27.994;2023-12-20T01:30:11;84974.78;;;34.52;19.67
73974;BME280;62336;-26.094;27.994;2023-12-20T01:32:36;84961.26;;;34.31;19.94
73974;BME280;62336;-26.094;27.994;2023-12-20T01:35:02;84962.21;;;34.99;19.89
73974;BME280;62336;-26.094;27.994;2023-12-20T01:37:28;84964.29;;;34.88;19.97
73974;BME280;62336;-26.094;27.994;2023-12-20T01:39:54;84958.74;;;34.54;20.31
73974;BME280;62336;-26.094;27.994;2023-12-20T01:42:19;84953.78;;;34.78;20.20
73974;BME280;62336;-26.094;27.994;2023-12-20T01:44:45;84955.35;;;34.80;20.14
73974;BME280;62336;-26.094;27.994;2023-12-20T01:47:11;84959.69;;;35.10;20.03
73974;BME280;62336;-26.094;27.994;2023-12-20T01:49:37;84960.55;;;35.08;19.96
73974;BME280;62336;-26.094;27.994;2023-12-20T01:52:03;84960.27;;;34.22;20.10
73974;BME280;62336;-26.094;27.994;2023-12-20T01:54:27;84958.86;;;34.92;19.79
73974;BME280;62336;-26.094;27.994;2023-12-20T01:56:52;84962.74;;;35.09;20.03
73974;BME280;62336;-26.094;27.994;2023-12-20T01:59:19;84969.15;;;34.94;20.00
73974;BME280;62336;-26.094;27.994;2023-12-20T02:01:43;84974.41;;;35.27;19.42
73974;BME280;62336;-26.094;27.994;2023-12-20T02:04:09;84973.07;;;34.67;20.30
73974;BME280;62336;-26.094;27.994;2023-12-20T02:06:34;84977.46;;;34.20;20.54
73974;BME280;62336;-26.094;27.994;2023-12-20T02:09:00;84979.28;;;34.46;20.66
73974;BME280;62336;-26.094;27.994;2023-12-20T02:11:26;84981.81;;;34.07;20.77
73974;BME280;62336;-26.094;27.994;2023-12-20T02:13:52;84983.93;;;33.64;21.03
73974;BME280;62336;-26.094;27.994;2023-12-20T02:16:16;84986.53;;;33.96;21.09
73974;BME280;62336;-26.094;27.994;2023-12-20T02:18:43;84991.29;;;33.98;21.11
73974;BME280;62336;-26.094;27.994;2023-12-20T02:21:08;84992.35;;;33.84;20.96
73974;BME280;62336;-26.094;27.994;2023-12-20T02:23:33;84996.32;;;34.08;21.01
73974;BME280;62336;-26.094;27.994;2023-12-20T02:25:59;84998.44;;;33.82;20.82
73974;BME280;62336;-26.094;27.994;2023-12-20T02:28:25;85001.50;;;33.80;21.14
73974;BME280;62336;-26.094;27.994;2023-12-20T02:30:50;85002.89;;;33.63;21.20
73974;BME280;62336;-26.094;27.994;2023-12-20T02:33:17;85001.52;;;33.91;21.13
73974;BME280;62336;-26.094;27.994;2023-12-20T02:35:42;84996.59;;;33.91;21.05
73974;BME280;62336;-26.094;27.994;2023-12-20T02:38:08;84996.70;;;34.27;21.01
73974;BME280;62336;-26.094;27.994;2023-12-20T02:40:33;84997.42;;;34.30;20.95
73974;BME280;62336;-26.094;27.994;2023-12-20T02:42:59;85000.53;;;34.41;20.94
73974;BME280;62336;-26.094;27.994;2023-12-20T02:45:25;85007.00;;;34.37;20.97
73974;BME280;62336;-26.094;27.994;2023-12-20T02:47:50;85002.81;;;34.54;20.58
73974;BME280;62336;-26.094;27.994;2023-12-20T02:50:18;84998.12;;;34.59;20.62
73974;BME280;62336;-26.094;27.994;2023-12-20T02:52:45;84990.80;;;34.06;21.18
73974;BME280;62336;-26.094;27.994;2023-12-20T02:55:08;84982.55;;;34.92;20.76
73974;BME280;62336;-26.094;27.994;2023-12-20T02:57:34;84985.35;;;34.51;20.87
73974;BME280;62336;-26.094;27.994;2023-12-20T02:59:59;84981.84;;;34.71;20.95
73974;BME280;62336;-26.094;27.994;2023-12-20T03:02:25;84979.42;;;34.25;20.94
73974;BME280;62336;-26.094;27.994;2023-12-20T03:04:51;84971.88;;;34.16;21.18
73974;BME280;62336;-26.094;27.994;2023-12-20T03:07:16;84956.38;;;34.18;21.30
73974;BME280;62336;-26.094;27.994;2023-12-20T03:09:42;84958.56;;;34.33;21.13
73974;BME280;62336;-26.094;27.994;2023-12-20T03:12:08;84972.12;;;34.22;21.36
73974;BME280;62336;-26.094;27.994;2023-12-20T03:14:33;84979.03;;;34.53;21.12
73974;BME280;62336;-26.094;27.994;2023-12-20T03:16:58;84982.78;;;33.51;21.56
73974;BME280;62336;-26.094;27.994;2023-12-20T03:19:24;84994.17;;;33.64;21.89
73974;BME280;62336;-26.094;27.994;2023-12-20T03:21:50;85006.17;;;33.94;21.69
73974;BME280;62336;-26.094;27.994;2023-12-20T03:24:16;85015.83;;;33.70;21.71
73974;BME280;62336;-26.094;27.994;2023-12-20T03:26:43;85015.17;;;34.01;21.55
73974;BME280;62336;-26.094;27.994;2023-12-20T03:29:07;85016.65;;;33.76;21.75
73974;BME280;62336;-26.094;27.994;2023-12-20T03:31:33;85019.19;;;33.88;21.85
73974;BME280;62336;-26.094;27.994;2023-12-20T03:33:58;85027.64;;;33.89;21.86
73974;BME280;62336;-26.094;27.994;2023-12-20T03:36:24;85035.32;;;33.73;21.89
73974;BME280;62336;-26.094;27.994;2023-12-20T03:38:51;85043.15;;;33.33;22.06
73974;BME280;62336;-26.094;27.994;2023-12-20T03:41:15;85045.75;;;33.24;22.06
73974;BME280;62336;-26.094;27.994;2023-12-20T03:43:41;85039.17;;;33.52;22.18
73974;BME280;62336;-26.094;27.994;2023-12-20T03:46:08;85025.81;;;33.64;22.04
73974;BME280;62336;-26.094;27.994;2023-12-20T03:48:32;85023.15;;;34.80;21.30
73974;BME280;62336;-26.094;27.994;2023-12-20T03:50:58;85024.75;;;34.18;21.56
73974;BME280;62336;-26.094;27.994;2023-12-20T03:53:23;85034.40;;;33.59;21.88
73974;BME280;62336;-26.094;27.994;2023-12-20T03:55:49;85037.75;;;34.06;21.88
73974;BME280;62336;-26.094;27.994;2023-12-20T03:58:15;85041.88;;;33.80;21.88
73974;BME280;62336;-26.094;27.994;2023-12-20T04:00:41;85041.75;;;33.70;22.13
73974;BME280;62336;-26.094;27.994;2023-12-20T04:03:07;85045.61;;;33.87;22.07
73974;BME280;62336;-26.094;27.994;2023-12-20T04:05:32;85057.21;;;33.39;22.29
73974;BME280;62336;-26.094;27.994;2023-12-20T04:07:59;85070.35;;;34.20;21.96
73974;BME280;62336;-26.094;27.994;2023-12-20T04:10:23;85085.58;;;33.59;22.21
73974;BME280;62336;-26.094;27.994;2023-12-20T04:12:49;85093.94;;;33.56;22.36
73974;BME280;62336;-26.094;27.994;2023-12-20T04:15:14;85110.75;;;33.15;22.58
73974;BME280;62336;-26.094;27.994;2023-12-20T04:17:41;85127.02;;;33.50;22.59
73974;BME280;62336;-26.094;27.994;2023-12-20T04:20:07;85140.99;;;33.82;22.22
73974;BME280;62336;-26.094;27.994;2023-12-20T04:22:31;85144.60;;;34.21;21.89
73974;BME280;62336;-26.094;27.994;2023-12-20T04:24:57;85142.46;;;34.36;21.93
73974;BME280;62336;-26.094;27.994;2023-12-20T04:27:24;85133.83;;;34.35;21.73
73974;BME280;62336;-26.094;27.994;2023-12-20T04:29:49;85145.11;;;33.96;21.82
73974;BME280;62336;-26.094;27.994;2023-12-20T04:32:15;85155.39;;;34.11;21.63
73974;BME280;62336;-26.094;27.994;2023-12-20T04:34:41;85157.07;;;34.33;22.01
73974;BME280;62336;-26.094;27.994;2023-12-20T04:37:06;85155.24;;;34.24;21.98
73974;BME280;62336;-26.094;27.994;2023-12-20T04:39:33;85154.83;;;33.94;22.04
73974;BME280;62336;-26.094;27.994;2023-12-20T04:41:58;85146.52;;;34.47;21.57
73974;BME280;62336;-26.094;27.994;2023-12-20T04:44:24;85142.50;;;34.75;21.47
73974;BME280;62336;-26.094;27.994;2023-12-20T04:46:50;85142.68;;;34.55;21.47
73974;BME280;62336;-26.094;27.994;2023-12-20T04:49:15;85146.11;;;34.70;21.52
73974;BME280;62336;-26.094;27.994;2023-12-20T04:51:43;85147.06;;;34.77;21.78
73974;BME280;62336;-26.094;27.994;2023-12-20T04:54:07;85143.77;;;34.33;21.70
73974;BME280;62336;-26.094;27.994;2023-12-20T04:56:33;85141.79;;;34.56;21.70
73974;BME280;62336;-26.094;27.994;2023-12-20T04:58:59;85143.06;;;34.56;21.84
73974;BME280;62336;-26.094;27.994;2023-12-20T05:01:25;85142.05;;;34.53;21.54
73974;BME280;62336;-26.094;27.994;2023-12-20T05:03:51;85142.96;;;34.88;21.43
73974;BME280;62336;-26.094;27.994;2023-12-20T05:06:16;85146.41;;;34.53;21.92
73974;BME280;62336;-26.094;27.994;2023-12-20T05:08:43;85157.47;;;34.70;21.63
73974;BME280;62336;-26.094;27.994;2023-12-20T05:11:08;85166.61;;;34.93;21.72
73974;BME280;62336;-26.094;27.994;2023-12-20T05:13:34;85169.51;;;34.45;21.87
73974;BME280;62336;-26.094;27.994;2023-12-20T05:15:59;85171.64;;;34.65;21.88
73974;BME280;62336;-26.094;27.994;2023-12-20T05:18:25;85173.04;;;35.12;21.29
73974;BME280;62336;-26.094;27.994;2023-12-20T05:20:51;85176.31;;;34.41;21.54
73974;BME280;62336;-26.094;27.994;2023-12-20T05:23:18;85176.95;;;34.80;21.69
73974;BME280;62336;-26.094;27.994;2023-12-20T05:25:43;85176.90;;;34.38;21.51
73974;BME280;62336;-26.094;27.994;2023-12-20T05:28:08;85179.53;;;34.87;21.66
73974;BME280;62336;-26.094;27.994;2023-12-20T05:30:34;85175.68;;;34.83;21.65
73974;BME280;62336;-26.094;27.994;2023-12-20T05:33:00;85166.14;;;34.82;21.52
73974;BME280;62336;-26.094;27.994;2023-12-20T05:35:25;85160.08;;;34.77;21.63
73974;BME280;62336;-26.094;27.994;2023-12-20T05:37:51;85167.34;;;34.95;21.40
73974;BME280;62336;-26.094;27.994;2023-12-20T05:40:17;85174.21;;;35.01;21.64
73974;BME280;62336;-26.094;27.994;2023-12-20T05:42:43;85171.03;;;34.87;21.25
73974;BME280;62336;-26.094;27.994;2023-12-20T05:45:09;85167.04;;;35.20;21.31
73974;BME280;62336;-26.094;27.994;2023-12-20T05:47:34;85168.73;;;35.22;21.27
73974;BME280;62336;-26.094;27.994;2023-12-20T05:50:00;85170.22;;;35.24;21.30
73974;BME280;62336;-26.094;27.994;2023-12-20T05:52:26;85177.53;;;34.64;21.40
73974;BME280;62336;-26.094;27.994;2023-12-20T05:54:51;85173.02;;;35.35;21.23
73974;BME280;62336;-26.094;27.994;2023-12-20T05:57:17;85175.31;;;35.19;21.51
73974;BME280;62336;-26.094;27.994;2023-12-20T05:59:43;85170.18;;;35.24;21.39
73974;BME280;62336;-26.094;27.994;2023-12-20T06:02:09;85167.33;;;34.92;21.49
73974;BME280;62336;-26.094;27.994;2023-12-20T06:04:34;85166.80;;;35.66;21.09
73974;BME280;62336;-26.094;27.994;2023-12-20T06:07:00;85163.19;;;35.00;21.51
73974;BME280;62336;-26.094;27.994;2023-12-20T06:09:27;85163.32;;;35.77;21.63
73974;BME280;62336;-26.094;27.994;2023-12-20T06:11:51;85160.78;;;35.86;21.21
73974;BME280;62336;-26.094;27.994;2023-12-20T06:14:17;85160.91;;;35.07;21.32
73974;BME280;62336;-26.094;27.994;2023-12-20T06:16:43;85159.31;;;35.84;20.94
73974;BME280;62336;-26.094;27.994;2023-12-20T06:19:08;85161.45;;;35.88;20.85
73974;BME280;62336;-26.094;27.994;2023-12-20T06:21:34;85158.19;;;35.81;20.65
73974;BME280;62336;-26.094;27.994;2023-12-20T06:23:59;85155.35;;;36.08;20.91
73974;BME280;62336;-26.094;27.994;2023-12-20T06:26:25;85151.37;;;35.37;21.04
73974;BME280;62336;-26.094;27.994;2023-12-20T06:28:51;85152.35;;;35.57;21.06
73974;BME280;62336;-26.094;27.994;2023-12-20T06:31:16;85154.48;;;35.28;21.51
73974;BME280;62336;-26.094;27.994;2023-12-20T06:33:43;85148.40;;;35.30;21.31
73974;BME280;62336;-26.094;27.994;2023-12-20T06:36:10;85144.72;;;35.50;21.20
73974;BME280;62336;-26.094;27.994;2023-12-20T06:38:33;85143.66;;;35.56;21.16
73974;BME280;62336;-26.094;27.994;2023-12-20T06:40:59;85139.50;;;36.02;21.12
73974;BME280;62336;-26.094;27.994;2023-12-20T06:43:25;85137.55;;;35.95;20.83
73974;BME280;62336;-26.094;27.994;2023-12-20T06:45:50;85141.08;;;36.10;20.60
73974;BME280;62336;-26.094;27.994;2023-12-20T06:48:16;85140.88;;;35.80;20.74
73974;BME280;62336;-26.094;27.994;2023-12-20T06:50:42;85140.44;;;35.61;20.77
73974;BME280;62336;-26.094;27.994;2023-12-20T06:53:08;85136.48;;;36.11;20.49
73974;BME280;62336;-26.094;27.994;2023-12-20T06:55:34;85139.71;;;35.83;20.37
73974;BME280;62336;-26.094;27.994;2023-12-20T06:57:59;85133.06;;;36.09;20.54
73974;BME280;62336;-26.094;27.994;2023-12-20T07:00:25;85135.13;;;36.61;20.07
73974;BME280;62336;-26.094;27.994;2023-12-20T07:02:51;85137.41;;;36.72;19.87
73974;BME280;62336;-26.094;27.994;2023-12-20T07:05:17;85137.71;;;36.35;20.25
73974;BME280;62336;-26.094;27.994;2023-12-20T07:07:42;85139.17;;;36.35;20.17
73974;BME280;62336;-26.094;27.994;2023-12-20T07:10:08;85137.61;;;36.56;19.95
73974;BME280;62336;-26.094;27.994;2023-12-20T07:12:34;85126.84;;;35.89;20.28
73974;BME280;62336;-26.094;27.994;2023-12-20T07:14:59;85123.74;;;36.62;19.83
73974;BME280;62336;-26.094;27.994;2023-12-20T07:17:25;85121.68;;;36.38;19.51
73974;BME280;62336;-26.094;27.994;2023-12-20T07:19:50;85123.07;;;36.63;19.61
73974;BME280;62336;-26.094;27.994;2023-12-20T07:22:16;85119.27;;;37.03;19.45
73974;BME280;62336;-26.094;27.994;2023-12-20T07:24:42;85121.15;;;37.24;19.31
73974;BME280;62336;-26.094;27.994;2023-12-20T07:27:08;85122.27;;;37.29;19.23
73974;BME280;62336;-26.094;27.994;2023-12-20T07:29:35;85124.71;;;37.62;19.05
73974;BME280;62336;-26.094;27.994;2023-12-20T07:31:59;85125.93;;;37.00;19.62
73974;BME280;62336;-26.094;27.994;2023-12-20T07:34:25;85129.15;;;37.26;19.53
73974;BME280;62336;-26.094;27.994;2023-12-20T07:36:51;85130.19;;;37.80;19.74
73974;BME280;62336;-26.094;27.994;2023-12-20T07:39:16;85126.75;;;37.81;19.05
73974;BME280;62336;-26.094;27.994;2023-12-20T07:41:43;85128.99;;;38.19;18.60
73974;BME280;62336;-26.094;27.994;2023-12-20T07:44:08;85129.86;;;38.02;19.25
73974;BME280;62336;-26.094;27.994;2023-12-20T07:46:33;85126.47;;;38.14;18.93
73974;BME280;62336;-26.094;27.994;2023-12-20T07:48:59;85119.17;;;37.80;18.67
73974;BME280;62336;-26.094;27.994;2023-12-20T07:51:24;85117.07;;;37.95;19.00
73974;BME280;62336;-26.094;27.994;2023-12-20T07:53:51;85115.96;;;38.51;18.67
73974;BME280;62336;-26.094;27.994;2023-12-20T07:56:16;85110.88;;;37.41;19.39
73974;BME280;62336;-26.094;27.994;2023-12-20T07:58:42;85114.10;;;38.13;18.96
73974;BME280;62336;-26.094;27.994;2023-12-20T08:01:07;85110.67;;;38.06;18.48
73974;BME280;62336;-26.094;27.994;2023-12-20T08:03:33;85105.68;;;38.49;18.34
73974;BME280;62336;-26.094;27.994;2023-12-20T08:05:59;85101.60;;;37.31;19.45
73974;BME280;62336;-26.094;27.994;2023-12-20T08:08:24;85102.84;;;38.00;19.01
73974;BME280;62336;-26.094;27.994;2023-12-20T08:10:50;85097.63;;;38.43;18.66
73974;BME280;62336;-26.094;27.994;2023-12-20T08:13:15;85094.13;;;38.25;18.42
73974;BME280;62336;-26.094;27.994;2023-12-20T08:15:42;85096.60;;;38.47;18.45
73974;BME280;62336;-26.094;27.994;2023-12-20T08:18:08;85091.83;;;38.35;18.41
73974;BME280;62336;-26.094;27.994;2023-12-20T08:20:31;85090.15;;;38.49;18.50
73974;BME280;62336;-26.094;27.994;2023-12-20T08:22:56;85087.87;;;38.85;18.37
73974;BME280;62336;-26.094;27.994;2023-12-20T08:25:22;85083.63;;;38.59;18.38
73974;BME280;62336;-26.094;27.994;2023-12-20T08:27:47;85080.56;;;39.46;17.77
73974;BME280;62336;-26.094;27.994;2023-12-20T08:30:13;85078.07;;;39.35;17.81
73974;BME280;62336;-26.094;27.994;2023-12-20T08:32:38;85081.05;;;39.68;17.46
73974;BME280;62336;-26.094;27.994;2023-12-20T08:35:04;85079.61;;;39.44;17.10
73974;BME280;62336;-26.094;27.994;2023-12-20T08:37:29;85084.89;;;39.68;17.22
73974;BME280;62336;-26.094;27.994;2023-12-20T08:39:55;85086.08;;;39.72;17.35
73974;BME280;62336;-26.094;27.994;2023-12-20T08:42:21;85085.30;;;39.11;17.68
73974;BME280;62336;-26.094;27.994;2023-12-20T08:44:44;85090.34;;;39.27;17.48
73974;BME280;62336;-26.094;27.994;2023-12-20T08:47:09;85089.78;;;39.49;17.42
73974;BME280;62336;-26.094;27.994;2023-12-20T08:49:34;85086.12;;;39.68;17.25
73974;BME280;62336;-26.094;27.994;2023-12-20T08:52:00;85082.36;;;38.87;17.65
73974;BME280;62336;-26.094;27.994;2023-12-20T08:54:25;85082.28;;;39.33;17.75
73974;BME280;62336;-26.094;27.994;2023-12-20T08:56:50;85076.61;;;39.72;17.18
73974;BME280;62336;-26.094;27.994;2023-12-20T08:59:15;85077.09;;;40.01;16.92
73974;BME280;62336;-26.094;27.994;2023-12-20T09:01:41;85077.85;;;39.63;17.04
73974;BME280;62336;-26.094;27.994;2023-12-20T09:04:06;85070.00;;;39.55;17.64
73974;BME280;62336;-26.094;27.994;2023-12-20T09:06:33;85064.88;;;39.79;17.70
73974;BME280;62336;-26.094;27.994;2023-12-20T09:08:56;85064.68;;;39.72;17.65
73974;BME280;62336;-26.094;27.994;2023-12-20T09:11:21;85061.34;;;39.72;17.54
73974;BME280;62336;-26.094;27.994;2023-12-20T09:13:47;85057.73;;;40.26;17.03
73974;BME280;62336;-26.094;27.994;2023-12-20T09:16:12;85062.14;;;39.30;17.38
73974;BME280;62336;-26.094;27.994;2023-12-20T09:18:37;85064.69;;;39.50;17.67
73974;BME280;62336;-26.094;27.994;2023-12-20T09:21:03;85056.73;;;39.96;16.69
73974;BME280;62336;-26.094;27.994;2023-12-20T09:23:28;85059.30;;;39.98;16.79
73974;BME280;62336;-26.094;27.994;2023-12-20T09:25:53;85048.90;;;40.11;16.91
73974;BME280;62336;-26.094;27.994;2023-12-20T09:28:18;85054.41;;;40.48;16.56
73974;BME280;62336;-26.094;27.994;2023-12-20T09:30:44;85052.32;;;40.59;16.66
73974;BME280;62336;-26.094;27.994;2023-12-20T09:33:08;85048.32;;;40.57;16.78
73974;BME280;62336;-26.094;27.994;2023-12-20T09:35:33;85048.38;;;40.28;16.82
73974;BME280;62336;-26.094;27.994;2023-12-20T09:37:59;85043.82;;;39.94;17.18
73974;BME280;62336;-26.094;27.994;2023-12-20T09:40:26;85039.48;;;39.91;16.97
73974;BME280;62336;-26.094;27.994;2023-12-20T09:42:56;85037.11;;;40.47;17.18
73974;BME280;62336;-26.094;27.994;2023-12-20T09:45:16;85035.29;;;40.44;16.30
73974;BME280;62336;-26.094;27.994;2023-12-20T09:47:42;85038.54;;;40.81;16.12
73974;BME280;62336;-26.094;27.994;2023-12-20T09:50:07;85029.46;;;40.17;16.73
73974;BME280;62336;-26.094;27.994;2023-12-20T09:52:32;85026.81;;;40.36;16.54
73974;BME280;62336;-26.094;27.994;2023-12-20T09:54:57;85021.82;;;40.59;16.68
73974;BME280;62336;-26.094;27.994;2023-12-20T09:57:21;85023.43;;;40.79;16.63
73974;BME280;62336;-26.094;27.994;2023-12-20T09:59:47;85019.30;;;40.59;16.77
73974;BME280;62336;-26.094;27.994;2023-12-20T10:02:13;85019.66;;;40.27;16.63
73974;BME280;62336;-26.094;27.994;2023-12-20T10:04:38;85013.22;;;40.12;16.78
73974;BME280;62336;-26.094;27.994;2023-12-20T10:07:04;85009.90;;;40.61;16.50
73974;BME280;62336;-26.094;27.994;2023-12-20T10:09:29;85006.90;;;40.76;16.42
73974;BME280;62336;-26.094;27.994;2023-12-20T10:11:55;85001.40;;;41.02;16.27
73974;BME280;62336;-26.094;27.994;2023-12-20T10:14:19;84996.93;;;41.20;16.33
73974;BME280;62336;-26.094;27.994;2023-12-20T10:16:44;85001.66;;;41.06;16.51
73974;BME280;62336;-26.094;27.994;2023-12-20T10:19:09;84996.07;;;41.27;15.94
73974;BME280;62336;-26.094;27.994;2023-12-20T10:21:35;85002.40;;;41.23;16.53
73974;BME280;62336;-26.094;27.994;2023-12-20T10:24:01;84992.97;;;40.85;15.86
73974;BME280;62336;-26.094;27.994;2023-12-20T10:26:27;84994.12;;;41.45;15.52
73974;BME280;62336;-26.094;27.994;2023-12-20T10:28:52;84990.81;;;41.06;16.45
73974;BME280;62336;-26.094;27.994;2023-12-20T10:31:27;84992.10;;;40.78;16.19
73974;BME280;62336;-26.094;27.994;2023-12-20T10:33:42;84994.22;;;41.00;16.32
73974;BME280;62336;-26.094;27.994;2023-12-20T10:36:08;84984.84;;;40.79;15.90
73974;BME280;62336;-26.094;27.994;2023-12-20T10:38:32;84988.10;;;40.98;16.00
73974;BME280;62336;-26.094;27.994;2023-12-20T10:40:58;84984.78;;;41.50;16.44
73974;BME280;62336;-26.094;27.994;2023-12-20T10:43:24;84978.73;;;41.47;16.58
73974;BME280;62336;-26.094;27.994;2023-12-20T10:45:48;84975.44;;;41.52;16.00
73974;BME280;62336;-26.094;27.994;2023-12-20T10:48:14;84974.21;;;41.64;16.03
73974;BME280;62336;-26.094;27.994;2023-12-20T10:50:41;84970.36;;;41.23;15.69
73974;BME280;62336;-26.094;27.994;2023-12-20T10:53:05;84962.97;;;41.57;15.63
73974;BME280;62336;-26.094;27.994;2023-12-20T10:55:31;84965.15;;;41.54;16.03
73974;BME280;62336;-26.094;27.994;2023-12-20T10:58:01;84965.10;;;41.70;15.47
73974;BME280;62336;-26.094;27.994;2023-12-20T11:00:23;84966.34;;;41.42;15.79
73974;BME280;62336;-26.094;27.994;2023-12-20T11:02:49;84961.06;;;41.00;15.74
73974;BME280;62336;-26.094;27.994;2023-12-20T11:05:22;84959.23;;;41.48;15.96
73974;BME280;62336;-26.094;27.994;2023-12-20T11:07:39;84951.05;;;41.44;15.43
73974;BME280;62336;-26.094;27.994;2023-12-20T11:10:09;84951.10;;;41.70;15.51
73974;BME280;62336;-26.094;27.994;2023-12-20T11:12:37;84949.63;;;41.77;15.57
73974;BME280;62336;-26.094;27.994;2023-12-20T11:14:55;84948.25;;;41.80;16.06
73974;BME280;62336;-26.094;27.994;2023-12-20T11:17:18;84952.64;;;41.98;15.65
73974;BME280;62336;-26.094;27.994;2023-12-20T11:22:09;84942.52;;;42.07;15.08
73974;BME280;62336;-26.094;27.994;2023-12-20T11:24:34;84944.19;;;42.15;15.37
73974;BME280;62336;-26.094;27.994;2023-12-20T11:27:00;84937.09;;;42.31;15.16
73974;BME280;62336;-26.094;27.994;2023-12-20T11:29:32;84938.93;;;42.09;15.32
73974;BME280;62336;-26.094;27.994;2023-12-20T11:31:51;84938.69;;;42.30;15.32
73974;BME280;62336;-26.094;27.994;2023-12-20T11:34:18;84937.36;;;42.54;15.03
73974;BME280;62336;-26.094;27.994;2023-12-20T11:36:42;84935.47;;;42.97;15.05
73974;BME280;62336;-26.094;27.994;2023-12-20T11:39:08;84926.10;;;42.05;15.12
73974;BME280;62336;-26.094;27.994;2023-12-20T11:41:33;84930.71;;;42.24;15.15
73974;BME280;62336;-26.094;27.994;2023-12-20T11:43:58;84920.21;;;42.36;14.90
73974;BME280;62336;-26.094;27.994;2023-12-20T11:46:23;84918.95;;;41.85;15.42
73974;BME280;62336;-26.094;27.994;2023-12-20T11:48:48;84913.24;;;41.66;15.33
73974;BME280;62336;-26.094;27.994;2023-12-20T11:51:14;84913.71;;;42.05;15.50
73974;BME280;62336;-26.094;27.994;2023-12-20T11:53:40;84911.68;;;42.24;15.07
73974;BME280;62336;-26.094;27.994;2023-12-20T11:56:05;84905.77;;;42.05;15.38
73974;BME280;62336;-26.094;27.994;2023-12-20T11:58:30;84906.38;;;42.16;15.17
73974;BME280;62336;-26.094;27.994;2023-12-20T12:00:55;84898.65;;;42.29;15.15
73974;BME280;62336;-26.094;27.994;2023-12-20T12:03:21;84900.77;;;42.19;15.59
73974;BME280;62336;-26.094;27.994;2023-12-20T12:05:47;84900.26;;;42.30;15.25
73974;BME280;62336;-26.094;27.994;2023-12-20T12:08:14;84895.60;;;41.99;15.17
73974;BME280;62336;-26.094;27.994;2023-12-20T12:10:38;84896.11;;;42.46;14.93
73974;BME280;62336;-26.094;27.994;2023-12-20T12:13:03;84891.36;;;42.14;15.32
73974;BME280;62336;-26.094;27.994;2023-12-20T12:15:29;84881.58;;;42.40;14.93
73974;BME280;62336;-26.094;27.994;2023-12-20T12:17:55;84881.07;;;42.45;15.36
73974;BME280;62336;-26.094;27.994;2023-12-20T12:20:20;84877.48;;;42.71;14.93
73974;BME280;62336;-26.094;27.994;2023-12-20T12:22:45;84876.04;;;42.44;15.18
73974;BME280;62336;-26.094;27.994;2023-12-20T12:25:12;84878.96;;;42.07;14.98
73974;BME280;62336;-26.094;27.994;2023-12-20T12:27:37;84871.99;;;42.67;15.31
73974;BME280;62336;-26.094;27.994;2023-12-20T12:30:04;84873.86;;;42.37;15.21
73974;BME280;62336;-26.094;27.994;2023-12-20T12:32:28;84872.16;;;42.45;14.83